Accueil
METAR-TAF:

METAR-TAF

Aéroports :

Aéroport de Fukushima

Kōriyama, Japon

latitude: 37-24N, longitude: 140-23E, altitude: 372 m

Observation

Le bulletin a été fait il y a 20 minutes, à 05:00 UTC
Vent 8 kt de nord/nord-ouest, variant entre nord-ouest et nord/nord-est
Température 7°C
Humidité 36%
Pression 1022 hPa
Visibilité 10 km ou plus
Quelques nuages à une hauteur de 3000 ft

METAR: RJSF 260500Z 33008KT 310V020 9999 FEW030 07/M07 Q1022

Heure: 14:20 (05:20 UTC)

Prévision

Le bulletin a été fait il y a 6 heures et 15 minutes, à 23:05 UTC
Prévision valable du 26 à 00 UTC au 27 à 06 UTC
Vent 10 kt de nord/nord-ouest
Visibilité 10 km ou plus
Quelques nuages à une hauteur de 3000 ft

TAF: RJSF 252305Z 2600/2706 34010KT 9999 FEW030

Observations et prévisions météorologiques de plus de 4000 aéroports (messages METAR et TAF).

Les stations disponibles sont représentées par des disques jaunes et rouges sur la carte.

Passer la souris dessus pour voir le nom de la station.

Cliquer dessus pour voir les observations et prévisions météorologiques.

Pour changer de carte: cliquez sur les boutons verts avec une croix noire pour zoomer, sur le bouton vert avec un tiret pour effectuer un zoom arrière, ou sur les flèches vertes pour les cartes adjacentes.


METAR-TAF: